| time (UTC) | temp F | wind direction | speed MPH | gust MPH | rain 1hr in | rain 24hr in | rain mn in | humidity % | barometer mb |
| 20260507194524 | 69 | 155 | 0.0 | 1.0 | 0.33 | 0.83 | 0.58 | 90 | 1007.5 |
| 20260507193030 | 66 | 141 | 1.0 | 3.0 | 0.33 | 0.83 | 0.58 | 92 | 1007.8 |
| 20260507191526 | 65 | 146 | 2.0 | 6.0 | 0.33 | 0.83 | 0.58 | 89 | 1008.0 |
| 20260507190020 | 69 | 133 | 3.0 | 4.0 | 0.25 | 0.75 | 0.50 | 85 | 1008.1 |
| 20260507184521 | 73 | 185 | 0.0 | 5.0 | 0.00 | 0.50 | 0.25 | 75 | 1008.3 |
| 20260507183032 | 74 | 178 | 0.0 | 10.0 | 0.00 | 0.50 | 0.25 | 73 | 1007.8 |
| 20260507181512 | 74 | 107 | 4.0 | 8.0 | 0.00 | 0.50 | 0.25 | 73 | 1008.1 |
| 20260507180036 | 73 | 133 | 2.0 | 9.0 | 0.00 | 0.50 | 0.25 | 78 | 1008.1 |
| 20260507174531 | 73 | 260 | 1.0 | 5.0 | 0.00 | 0.50 | 0.25 | 81 | 1008.2 |
| 20260507173026 | 73 | 138 | 1.0 | 5.0 | 0.00 | 0.50 | 0.25 | 77 | 1008.4 |
| 20260507171527 | 72 | 131 | 1.0 | 6.0 | 0.00 | 0.50 | 0.25 | 79 | 1008.6 |
| 20260507170022 | 70 | 180 | 2.0 | 6.0 | 0.00 | 0.50 | 0.25 | 85 | 1008.7 |
| 20260507164516 | 69 | 300 | 0.0 | 3.0 | 0.00 | 0.50 | 0.25 | 83 | 1009.0 |
| 20260507163019 | 68 | 269 | 1.0 | 6.0 | 0.00 | 0.52 | 0.25 | 89 | 1009.2 |
| 20260507161538 | 68 | 161 | 2.0 | 6.0 | 0.00 | 0.55 | 0.25 | 88 | 1009.1 |
| 20260507154532 | 67 | 184 | 0.0 | 3.0 | 0.00 | 0.55 | 0.25 | 91 | 1009.2 |
| 20260507153023 | 66 | 151 | 1.0 | 4.0 | 0.00 | 0.55 | 0.25 | 92 | 1008.8 |
| 20260507150022 | 64 | 175 | 0.0 | 2.0 | 0.00 | 0.55 | 0.25 | 96 | 1009.4 |
| 20260507144516 | 63 | 172 | 0.0 | 2.0 | 0.00 | 0.55 | 0.25 | 96 | 1009.5 |
| 20260507143025 | 63 | 144 | 0.0 | 3.0 | 0.01 | 0.55 | 0.25 | 96 | 1009.9 |
| 20260507141512 | 63 | 166 | 0.0 | 4.0 | 0.02 | 0.55 | 0.25 | 96 | 1009.9 |
| 20260507140016 | 63 | 163 | 0.0 | 1.0 | 0.03 | 0.55 | 0.25 | 96 | 1009.9 |
| 20260507134521 | 63 | 131 | 0.0 | 2.0 | 0.04 | 0.55 | 0.25 | 96 | 1009.7 |
| 20260507133010 | 63 | 134 | 0.0 | 2.0 | 0.05 | 0.54 | 0.24 | 96 | 1009.6 |
| 20260507131527 | 62 | 323 | 0.0 | 1.0 | 0.07 | 0.52 | 0.23 | 96 | 1009.5 |
| 20260507130017 | 62 | 121 | 0.0 | 0.0 | 0.08 | 0.52 | 0.22 | 96 | 1009.1 |
| 20260507124519 | 62 | 121 | 0.0 | 0.0 | 0.10 | 0.51 | 0.21 | 96 | 1009.3 |
| 20260507123019 | 62 | 121 | 0.0 | 0.0 | 0.10 | 0.49 | 0.19 | 96 | 1009.5 |
| 20260507121512 | 62 | 121 | 0.0 | 0.0 | 0.07 | 0.46 | 0.16 | 96 | 1009.9 |
| 20260507120008 | 62 | 328 | 0.0 | 1.0 | 0.05 | 0.44 | 0.14 | 96 | 1011.1 |
| 20260507114505 | 62 | 144 | 0.0 | 0.0 | 0.03 | 0.41 | 0.11 | 96 | 1011.2 |
| 20260507113024 | 62 | 127 | 0.0 | 0.0 | 0.01 | 0.39 | 0.09 | 96 | 1010.7 |
| 20260507111523 | 62 | 127 | 0.0 | 0.0 | 0.01 | 0.39 | 0.09 | 96 | 1009.9 |
| 20260507110020 | 62 | 304 | 1.0 | 2.0 | 0.01 | 0.39 | 0.09 | 96 | 1010.4 |
| 20260507104515 | 61 | 146 | 1.0 | 2.0 | 0.00 | 0.38 | 0.08 | 96 | 1010.2 |
| 20260507103013 | 61 | 153 | 0.0 | 0.0 | 0.00 | 0.38 | 0.08 | 96 | 1010.0 |
| 20260507101517 | 61 | 134 | 0.0 | 2.0 | 0.00 | 0.38 | 0.08 | 96 | 1009.4 |
| 20260507100029 | 61 | 150 | 0.0 | 1.0 | 0.00 | 0.38 | 0.08 | 96 | 1009.8 |
| 20260507094524 | 61 | 150 | 0.0 | 0.0 | 0.01 | 0.38 | 0.08 | 96 | 1009.9 |
| 20260507093021 | 61 | 150 | 0.0 | 0.0 | 0.01 | 0.38 | 0.08 | 96 | 1009.9 |
| 20260507091519 | 61 | 150 | 0.0 | 3.0 | 0.01 | 0.38 | 0.08 | 96 | 1010.0 |
| 20260507090020 | 61 | 150 | 0.0 | 0.0 | 0.01 | 0.38 | 0.08 | 96 | 1009.9 |
| 20260507084530 | 61 | 150 | 0.0 | 2.0 | 0.00 | 0.37 | 0.07 | 96 | 1010.2 |
| 20260507083010 | 61 | 311 | 0.0 | 0.0 | 0.00 | 0.37 | 0.07 | 96 | 1010.5 |
| 20260507081523 | 61 | 148 | 0.0 | 0.0 | 0.01 | 0.37 | 0.07 | 96 | 1009.9 |
| 20260507080027 | 61 | 182 | 0.0 | 0.0 | 0.02 | 0.37 | 0.07 | 96 | 1009.9 |
| 20260507074535 | 62 | 292 | 0.0 | 0.0 | 0.02 | 0.37 | 0.07 | 96 | 1009.9 |
| 20260507073021 | 61 | 292 | 0.0 | 0.0 | 0.02 | 0.37 | 0.07 | 96 | 1010.0 |
| 20260507071518 | 61 | 161 | 0.0 | 0.0 | 0.02 | 0.36 | 0.06 | 95 | 1009.8 |
| 20260507070016 | 62 | 294 | 0.0 | 0.0 | 0.01 | 0.35 | 0.05 | 95 | 1010.7 |
| 20260507064512 | 62 | 326 | 0.0 | 2.0 | 0.02 | 0.35 | 0.05 | 95 | 1011.0 |
| 20260507063029 | 62 | 147 | 0.0 | 2.0 | 0.03 | 0.35 | 0.05 | 95 | 1011.2 |
| 20260507061527 | 62 | 153 | 1.0 | 3.0 | 0.02 | 0.34 | 0.04 | 95 | 1011.6 |
| 20260507060024 | 62 | 113 | 0.0 | 0.0 | 0.03 | 0.34 | 0.04 | 95 | 1011.7 |
| 20260507054519 | 62 | 113 | 0.0 | 0.0 | 0.02 | 0.33 | 0.03 | 95 | 1011.6 |
| 20260507053017 | 62 | 57 | 0.0 | 0.0 | 0.02 | 0.32 | 0.02 | 95 | 1011.8 |
| 20260507051529 | 62 | 315 | 0.0 | 2.0 | 0.02 | 0.32 | 0.02 | 95 | 1013.4 |
| 20260507050028 | 62 | 125 | 0.0 | 2.0 | 0.01 | 0.31 | 0.01 | 95 | 1013.0 |
| 20260507044527 | 62 | 141 | 1.0 | 3.0 | 0.01 | 0.31 | 0.01 | 95 | 1013.5 |
| 20260507043008 | 62 | 336 | 0.0 | 3.0 | 0.01 | 0.30 | 0.00 | 95 | 1013.0 |
| 20260507041530 | 62 | 341 | 0.0 | 0.0 | 0.01 | 0.30 | 0.00 | 95 | 1012.7 |
| 20260507040024 | 62 | 132 | 0.0 | 0.0 | 0.02 | 0.30 | 0.00 | 95 | 1012.3 |
| 20260507034525 | 62 | 139 | 0.0 | 2.0 | 0.03 | 0.30 | 0.30 | 95 | 1012.4 |
| 20260507033026 | 62 | 126 | 0.0 | 2.0 | 0.02 | 0.29 | 0.29 | 95 | 1012.7 |
| 20260507030017 | 63 | 145 | 3.0 | 12.0 | 0.03 | 0.28 | 0.28 | 94 | 1011.5 |
| 20260507024508 | 63 | 148 | 1.0 | 3.0 | 0.04 | 0.27 | 0.27 | 94 | 1013.8 |
| 20260507023023 | 63 | 252 | 0.0 | 1.0 | 0.06 | 0.27 | 0.27 | 94 | 1013.8 |
| 20260507021523 | 64 | 150 | 0.0 | 1.0 | 0.06 | 0.26 | 0.26 | 94 | 1013.3 |
| 20260507020029 | 64 | 315 | 0.0 | 2.0 | 0.06 | 0.25 | 0.25 | 94 | 1013.2 |
| 20260507014532 | 64 | 151 | 1.0 | 3.0 | 0.04 | 0.23 | 0.23 | 94 | 1012.8 |
| 20260507013012 | 65 | 150 | 0.0 | 4.0 | 0.04 | 0.21 | 0.21 | 93 | 1013.1 |
| 20260507011516 | 65 | 141 | 0.0 | 3.0 | 0.07 | 0.20 | 0.20 | 93 | 1012.7 |
| 20260507010029 | 66 | 154 | 2.0 | 5.0 | 0.10 | 0.19 | 0.19 | 93 | 1012.4 |
| 20260507004526 | 66 | 152 | 2.0 | 6.0 | 0.11 | 0.19 | 0.19 | 93 | 1012.0 |
| 20260507003025 | 66 | 163 | 1.0 | 4.0 | 0.10 | 0.17 | 0.17 | 92 | 1012.0 |
| 20260507001525 | 67 | 321 | 0.0 | 4.0 | 0.06 | 0.13 | 0.13 | 92 | 1012.7 |
| 20260507000019 | 67 | 175 | 0.0 | 3.0 | 0.03 | 0.09 | 0.09 | 92 | 1012.9 |
| 20260506234518 | 67 | 96 | 0.0 | 3.0 | 0.03 | 0.08 | 0.08 | 92 | 1012.3 |
| 20260506233014 | 67 | 148 | 0.0 | 1.0 | 0.02 | 0.07 | 0.07 | 92 | 1011.7 |
| 20260506224522 | 70 | 171 | 0.0 | 0.0 | 0.00 | 0.05 | 0.05 | 85 | 1012.2 |
| 20260506223025 | 71 | 171 | 0.0 | 1.0 | 0.00 | 0.05 | 0.05 | 81 | 1012.1 |
| 20260506221518 | 72 | 205 | 0.0 | 3.0 | 0.00 | 0.05 | 0.05 | 77 | 1011.9 |
| 20260506220015 | 72 | 348 | 2.0 | 3.0 | 0.00 | 0.05 | 0.05 | 76 | 1012.1 |
| 20260506213025 | 72 | 84 | 2.0 | 6.0 | 0.00 | 0.05 | 0.05 | 79 | 1011.8 |
| 20260506211525 | 71 | 172 | 4.0 | 9.0 | 0.00 | 0.05 | 0.05 | 79 | 1011.7 |
| 20260506210025 | 71 | 153 | 3.0 | 6.0 | 0.00 | 0.05 | 0.05 | 80 | 1011.8 |
| 20260506204524 | 71 | 127 | 4.0 | 7.0 | 0.00 | 0.05 | 0.05 | 79 | 1011.9 |
| 20260506203026 | 71 | 205 | 1.0 | 12.0 | 0.00 | 0.05 | 0.05 | 79 | 1012.1 |
| 20260506201523 | 70 | 34 | 2.0 | 18.0 | 0.00 | 0.05 | 0.05 | 79 | 1012.6 |
| 20260506200015 | 70 | 153 | 2.0 | 9.0 | 0.00 | 0.05 | 0.05 | 79 | 1012.6 |